Time;durP1;ratioP1;P1;durP2;ratioP2;P2;SDS_P1;SDS_P2;PMS_P1;PMS_P2;Temp;Humidity;BMP_temperature;BMP_pressure;BME280_temperature;BME280_humidity;BME280_pressure;Samples;Min_cycle;Max_cycle;Signal;HPM_P1;HPM_P2
2023/12/19 00:02:17;;;;;;;24.25;15.43;;;;;;;6.14;100.00;102476.75;4788140;30;20551;-68
2023/12/19 00:05:07;;;;;;;22.55;13.93;;;;;;;6.14;100.00;102475.94;4788822;30;20047;-69
2023/12/19 00:07:55;;;;;;;21.35;14.25;;;;;;;6.13;100.00;102468.81;4787834;29;20415;-68
2023/12/19 00:10:43;;;;;;;18.02;12.18;;;;;;;6.13;100.00;102458.00;4776471;30;20070;-70
2023/12/19 00:13:32;;;;;;;19.30;12.90;;;;;;;6.11;100.00;102444.69;4788159;30;20083;-68
2023/12/19 00:16:19;;;;;;;19.70;13.13;;;;;;;6.15;100.00;102445.09;4786747;29;20526;-68
2023/12/19 00:19:09;;;;;;;22.05;13.55;;;;;;;6.14;100.00;102448.88;4774863;30;20051;-69
2023/12/19 00:21:57;;;;;;;20.02;13.23;;;;;;;6.14;100.00;102436.16;4786881;30;20138;-69
2023/12/19 00:24:46;;;;;;;23.75;15.20;;;;;;;6.14;100.00;102432.63;4788422;29;20043;-69
2023/12/19 00:27:34;;;;;;;19.48;12.30;;;;;;;6.16;100.00;102431.38;4773130;30;20520;-70
2023/12/19 00:30:24;;;;;;;19.88;13.63;;;;;;;6.17;100.00;102424.09;4789505;29;20092;-68
2023/12/19 00:33:12;;;;;;;19.98;13.40;;;;;;;6.15;100.00;102415.34;4787927;30;20051;-68
2023/12/19 00:36:00;;;;;;;22.65;14.85;;;;;;;6.18;100.00;102406.81;4770091;30;20052;-69
2023/12/19 00:38:48;;;;;;;17.90;11.32;;;;;;;6.22;100.00;102407.25;4775046;30;20493;-69
2023/12/19 00:41:36;;;;;;;19.98;11.80;;;;;;;6.27;100.00;102397.50;4775204;30;20498;-68
2023/12/19 00:44:24;;;;;;;22.45;14.68;;;;;;;6.23;100.00;102396.25;4787626;30;20062;-68
2023/12/19 00:47:12;;;;;;;21.15;12.68;;;;;;;6.22;100.00;102382.91;4787479;30;20417;-68
2023/12/19 00:50:00;;;;;;;23.30;14.00;;;;;;;6.22;100.00;102375.63;4773651;30;20048;-69
2023/12/19 00:52:48;;;;;;;21.10;14.00;;;;;;;6.18;100.00;102371.63;4764039;30;20185;-68
2023/12/19 00:55:36;;;;;;;20.08;13.02;;;;;;;6.27;100.00;102373.13;4788489;30;20059;-69
2023/12/19 00:58:24;;;;;;;18.92;12.10;;;;;;;6.31;100.00;102362.75;4788342;30;20148;-68
2023/12/19 01:01:12;;;;;;;22.13;13.43;;;;;;;6.25;100.00;102358.97;4787339;30;20557;-68
2023/12/19 01:04:01;;;;;;;22.20;14.55;;;;;;;6.22;100.00;102356.66;4761740;30;20044;-68
2023/12/19 01:06:49;;;;;;;19.70;11.85;;;;;;;6.23;100.00;102349.38;4758354;30;20059;-69
2023/12/19 01:09:37;;;;;;;18.90;12.60;;;;;;;6.18;100.00;102345.44;4786684;30;20125;-68
2023/12/19 01:12:25;;;;;;;21.73;13.45;;;;;;;6.19;100.00;102348.97;4786691;30;20063;-68
2023/12/19 01:15:13;;;;;;;21.35;12.48;;;;;;;6.24;100.00;102354.59;4799837;29;20055;-68
2023/12/19 01:18:01;;;;;;;19.77;13.55;;;;;;;6.23;100.00;102347.53;4783938;30;20047;-68
2023/12/19 01:20:50;;;;;;;22.05;15.02;;;;;;;6.18;100.00;102345.44;4774824;29;20063;-68
2023/12/19 01:23:38;;;;;;;20.38;13.80;;;;;;;6.20;100.00;102345.22;4774792;30;20160;-67
2023/12/19 01:26:26;;;;;;;22.95;15.80;;;;;;;6.19;100.00;102336.25;4762719;29;20104;-68
2023/12/19 01:29:17;;;;;;;19.48;13.43;;;;;;;6.23;100.00;102335.84;4786605;30;20524;-68
2023/12/19 01:32:06;;;;;;;21.77;13.63;;;;;;;6.24;100.00;102335.66;4787882;30;20047;-68
2023/12/19 01:34:53;;;;;;;23.67;15.20;;;;;;;6.26;100.00;102332.75;4788308;30;20044;-68
2023/12/19 01:37:45;;;;;;;21.88;13.60;;;;;;;6.27;100.00;102334.41;4775074;30;20524;-68
2023/12/19 01:40:32;;;;;;;21.73;13.55;;;;;;;6.30;100.00;102340.28;4786499;30;20051;-69
2023/12/19 01:43:21;;;;;;;24.38;15.75;;;;;;;6.31;100.00;102341.94;4787943;29;20417;-68
2023/12/19 01:46:17;;;;;;;22.65;13.52;;;;;;;6.28;100.00;102344.22;4773363;30;20051;-68
2023/12/19 01:49:05;;;;;;;23.63;14.63;;;;;;;6.28;100.00;102342.34;4773660;30;20050;-68
2023/12/19 01:51:53;;;;;;;23.63;15.30;;;;;;;6.29;100.00;102344.00;4786703;30;20061;-69
2023/12/19 01:54:41;;;;;;;24.65;15.43;;;;;;;6.25;100.00;102340.03;4773614;30;20066;-69
2023/12/19 01:57:30;;;;;;;21.25;13.45;;;;;;;6.27;100.00;102340.66;4776254;30;20130;-67
2023/12/19 02:00:18;;;;;;;24.27;15.82;;;;;;;6.25;100.00;102342.72;4782923;30;20515;-67
2023/12/19 02:03:06;;;;;;;21.77;15.05;;;;;;;6.23;100.00;102334.00;4802650;30;20111;-68
2023/12/19 02:05:55;;;;;;;23.80;15.60;;;;;;;6.24;100.00;102338.38;4793877;30;20112;-68
2023/12/19 02:08:43;;;;;;;24.92;14.57;;;;;;;6.25;100.00;102331.91;4803492;30;20044;-66
2023/12/19 02:11:31;;;;;;;18.88;12.98;;;;;;;6.28;100.00;102331.53;4804955;29;20051;-65
2023/12/19 02:14:19;;;;;;;22.33;15.30;;;;;;;6.26;100.00;102322.75;4794803;30;20055;-68
2023/12/19 02:17:07;;;;;;;21.67;13.65;;;;;;;6.28;100.00;102314.44;4793499;29;20075;-68
2023/12/19 02:19:55;;;;;;;20.55;13.25;;;;;;;6.28;100.00;102314.44;4788083;29;20059;-68
2023/12/19 02:22:49;;;;;;;22.55;14.48;;;;;;;6.31;100.00;102314.03;4785036;30;20051;-70
2023/12/19 02:25:38;;;;;;;24.98;15.68;;;;;;;6.32;100.00;102308.41;4768499;30;20126;-69
2023/12/19 02:28:26;;;;;;;23.33;14.63;;;;;;;6.30;100.00;102296.09;4732093;30;20192;-68
2023/12/19 02:31:14;;;;;;;23.17;15.88;;;;;;;6.34;100.00;102292.78;4769497;30;20134;-68
2023/12/19 02:34:02;;;;;;;22.35;13.65;;;;;;;6.34;100.00;102291.97;4786270;30;20172;-68
2023/12/19 02:36:50;;;;;;;27.05;16.27;;;;;;;6.30;100.00;102291.56;4786998;30;20063;-69
2023/12/19 02:39:38;;;;;;;20.90;13.70;;;;;;;6.30;100.00;102291.56;4776362;30;20567;-68
2023/12/19 02:42:26;;;;;;;18.48;12.30;;;;;;;6.32;100.00;102278.63;4773706;30;20063;-68
2023/12/19 02:45:14;;;;;;;18.58;12.68;;;;;;;6.31;100.00;102282.38;4789562;30;20055;-69
2023/12/19 02:48:03;;;;;;;19.23;12.00;;;;;;;6.32;100.00;102283.22;4789841;29;20139;-69
2023/12/19 02:50:51;;;;;;;22.10;13.38;;;;;;;6.35;100.00;102272.81;4788877;30;20099;-68
2023/12/19 02:53:39;;;;;;;16.60;12.00;;;;;;;6.35;100.00;102270.13;4789789;30;20059;-68
2023/12/19 02:56:32;;;;;;;17.38;12.02;;;;;;;6.41;100.00;102265.75;4790653;30;20130;-68
2023/12/19 02:59:19;;;;;;;19.10;12.60;;;;;;;6.33;100.00;102244.28;4777146;30;20505;-68
2023/12/19 03:02:07;;;;;;;18.27;11.75;;;;;;;6.30;100.00;102244.69;4789898;30;20043;-67
2023/12/19 03:04:55;;;;;;;15.73;11.13;;;;;;;6.30;100.00;102241.97;4777222;30;20051;-69
2023/12/19 03:07:44;;;;;;;16.23;10.52;;;;;;;6.30;100.00;102232.00;4776822;30;20059;-69
2023/12/19 03:10:31;;;;;;;16.15;10.38;;;;;;;6.33;100.00;102237.00;4776780;30;20051;-69
2023/12/19 03:13:19;;;;;;;18.65;11.63;;;;;;;6.33;100.00;102241.59;4790719;30;20138;-68
2023/12/19 03:16:08;;;;;;;15.07;10.77;;;;;;;6.33;100.00;102225.34;4783759;30;20059;-69
2023/12/19 03:18:56;;;;;;;15.00;9.77;;;;;;;6.30;100.00;102226.59;4788592;30;20075;-69
2023/12/19 03:21:44;;;;;;;15.45;10.32;;;;;;;6.32;100.00;102213.66;4789160;29;20085;-70
2023/12/19 03:24:32;;;;;;;16.83;9.95;;;;;;;6.33;100.00;102214.50;4793271;29;20048;-68
2023/12/19 03:27:20;;;;;;;16.13;11.15;;;;;;;6.33;100.00;102204.53;4789041;30;20492;-69
2023/12/19 03:30:09;;;;;;;14.80;9.63;;;;;;;6.33;100.00;102207.22;4788160;30;20051;-69
2023/12/19 03:33:01;;;;;;;14.82;9.45;;;;;;;6.32;100.00;102194.72;4788069;30;20051;-69
2023/12/19 03:35:49;;;;;;;16.00;10.40;;;;;;;6.31;100.00;102190.34;4780035;30;20070;-69
2023/12/19 03:38:37;;;;;;;13.95;8.90;;;;;;;6.31;100.00;102176.81;4788794;30;20420;-68
2023/12/19 03:41:25;;;;;;;12.98;8.90;;;;;;;6.34;100.00;102179.09;4787723;30;20066;-70
2023/12/19 03:44:13;;;;;;;14.27;9.30;;;;;;;6.35;100.00;102169.97;4789553;29;20054;-69
2023/12/19 03:47:01;;;;;;;13.38;8.95;;;;;;;6.35;100.00;102163.69;4788740;30;20065;-69
2023/12/19 03:49:50;;;;;;;16.02;10.70;;;;;;;6.32;100.00;102153.28;4764328;30;20055;-68
2023/12/19 03:52:39;;;;;;;16.23;10.20;;;;;;;6.31;100.00;102157.88;4762765;30;20051;-69
2023/12/19 03:55:29;;;;;;;16.10;10.23;;;;;;;6.30;100.00;102148.09;4765124;30;20066;-68
2023/12/19 03:58:17;;;;;;;13.60;9.73;;;;;;;6.30;100.00;102153.50;4774542;30;20047;-69
2023/12/19 04:01:05;;;;;;;15.50;9.60;;;;;;;6.32;100.00;102156.81;4776394;30;20047;-69
2023/12/19 04:03:53;;;;;;;14.15;10.00;;;;;;;6.32;100.00;102158.69;4775494;30;20524;-68
2023/12/19 04:06:43;;;;;;;14.13;10.60;;;;;;;6.34;100.00;102146.63;4789622;30;20127;-68
2023/12/19 04:09:31;;;;;;;14.52;9.18;;;;;;;6.35;100.00;102140.19;4774827;30;20144;-69
2023/12/19 04:12:19;;;;;;;12.73;9.00;;;;;;;6.35;100.00;102137.47;4789443;30;20055;-67
2023/12/19 04:15:08;;;;;;;13.07;9.00;;;;;;;6.37;100.00;102129.97;4788778;30;20089;-69
2023/12/19 04:17:56;;;;;;;11.25;8.38;;;;;;;6.38;100.00;102130.81;4787499;30;20058;-69
2023/12/19 04:20:44;;;;;;;14.05;10.15;;;;;;;6.36;100.00;102130.19;4787708;30;20062;-69
2023/12/19 04:23:32;;;;;;;12.80;8.80;;;;;;;6.34;100.00;102118.72;4787797;30;20436;-69
2023/12/19 04:26:20;;;;;;;13.95;9.00;;;;;;;6.39;100.00;102087.28;4784302;30;20059;-69
2023/12/19 04:29:09;;;;;;;14.00;9.80;;;;;;;6.40;100.00;102096.25;4771555;30;20526;-67
2023/12/19 04:31:57;;;;;;;15.10;10.02;;;;;;;6.37;100.00;102102.06;4775041;30;20138;-69
2023/12/19 04:34:46;;;;;;;14.60;10.80;;;;;;;6.38;100.00;102091.03;4786030;30;20047;-69
2023/12/19 04:37:34;;;;;;;17.20;12.48;;;;;;;6.40;100.00;102080.00;4771805;30;20494;-69
2023/12/19 04:40:22;;;;;;;17.98;12.88;;;;;;;6.40;100.00;102080.84;4787294;30;20062;-69
2023/12/19 04:43:10;;;;;;;19.95;13.38;;;;;;;6.39;100.00;102078.31;4774622;30;20047;-68
2023/12/19 04:45:59;;;;;;;20.17;14.20;;;;;;;6.39;100.00;102079.16;4787226;30;20047;-69
2023/12/19 04:48:47;;;;;;;17.50;12.50;;;;;;;6.42;100.00;102077.06;4788188;29;20054;-70
2023/12/19 04:51:35;;;;;;;21.48;14.25;;;;;;;6.43;100.00;102073.34;4788524;30;20135;-69
2023/12/19 04:54:23;;;;;;;23.20;15.38;;;;;;;6.39;100.00;102075.63;4774696;30;20089;-69
2023/12/19 04:57:11;;;;;;;22.73;14.57;;;;;;;6.43;100.00;102065.22;4791967;29;20397;-69
2023/12/19 04:59:59;;;;;;;21.15;14.52;;;;;;;6.41;100.00;102049.16;4777007;29;20058;-69
2023/12/19 05:02:48;;;;;;;27.00;17.27;;;;;;;6.58;100.00;102036.84;4786481;29;20059;-67
2023/12/19 05:05:36;;;;;;;22.65;15.13;;;;;;;6.53;100.00;102038.53;4784849;30;20044;-70
2023/12/19 05:08:24;;;;;;;23.95;17.23;;;;;;;6.53;100.00;102041.25;4773907;30;20055;-69
2023/12/19 05:11:12;;;;;;;23.17;16.35;;;;;;;6.50;100.00;102045.22;4782248;30;20070;-68
2023/12/19 05:14:01;;;;;;;18.67;13.32;;;;;;;6.57;100.00;102043.31;4787883;29;20047;-68
2023/12/19 05:16:50;;;;;;;20.90;13.32;;;;;;;6.57;100.00;102037.09;4765540;30;20496;-68
2023/12/19 05:19:39;;;;;;;23.25;15.07;;;;;;;6.54;100.00;102035.63;4772486;29;20203;-68
2023/12/19 05:22:37;;;;;;;25.90;16.77;;;;;;;6.53;100.00;102039.38;4769324;30;20051;-69
2023/12/19 05:25:26;;;;;;;25.30;17.52;;;;;;;6.52;100.00;102026.88;4772572;30;20050;-69
2023/12/19 05:28:14;;;;;;;27.98;18.88;;;;;;;6.46;100.00;102038.53;4757330;30;20490;-69
2023/12/19 05:31:03;;;;;;;26.60;18.67;;;;;;;6.40;100.00;102032.09;4756503;30;20062;-68
2023/12/19 05:33:51;;;;;;;28.23;19.85;;;;;;;6.37;100.00;102024.41;4760604;30;20551;-69
2023/12/19 05:36:45;;;;;;;26.05;19.05;;;;;;;6.35;100.00;102028.34;4768654;30;20097;-68
2023/12/19 05:39:33;;;;;;;30.10;19.50;;;;;;;6.34;100.00;102026.69;4770258;30;20056;-68
2023/12/19 05:42:22;;;;;;;25.75;17.00;;;;;;;6.39;100.00;102022.31;4769799;30;20056;-69
2023/12/19 05:45:10;;;;;;;19.65;13.25;;;;;;;6.55;100.00;102026.44;4766113;30;20049;-69
2023/12/19 05:47:58;;;;;;;22.35;15.07;;;;;;;6.59;100.00;102043.09;4760962;30;20516;-69
2023/12/19 05:50:48;;;;;;;21.55;14.65;;;;;;;6.60;100.00;102042.06;4781792;29;20048;-69
2023/12/19 05:53:37;;;;;;;20.75;14.30;;;;;;;6.68;100.00;102017.44;4767449;30;20519;-69
2023/12/19 05:56:26;;;;;;;21.30;14.65;;;;;;;6.62;100.00;102002.06;4777510;30;20143;-68
2023/12/19 05:59:14;;;;;;;20.17;13.73;;;;;;;6.68;100.00;102001.19;4440049;30;10000106;-71
2023/12/19 06:02:02;;;;;;;18.40;10.05;;;;;;;6.66;100.00;102000.56;4763961;30;20587;-70
2023/12/19 06:04:51;;;;;;;19.58;13.20;;;;;;;6.68;100.00;101990.38;4759978;30;20138;-68
2023/12/19 06:07:40;;;;;;;22.75;15.65;;;;;;;6.63;100.00;101979.34;4748240;30;20048;-68
2023/12/19 06:10:28;;;;;;;22.45;12.50;;;;;;;6.67;100.00;101983.31;4747443;30;20418;-69
2023/12/19 06:13:17;;;;;;;24.30;15.43;;;;;;;6.70;100.00;101988.28;4762430;30;20411;-69
2023/12/19 06:16:06;;;;;;;24.42;15.73;;;;;;;6.68;100.00;101984.94;4769736;30;20528;-69
2023/12/19 06:18:55;;;;;;;20.33;12.65;;;;;;;6.77;100.00;101980.13;4772190;30;20175;-68
2023/12/19 06:21:43;;;;;;;23.08;14.57;;;;;;;6.80;100.00;101987.84;4781357;30;20079;-70
2023/12/19 06:24:31;;;;;;;25.65;15.38;;;;;;;6.75;100.00;101993.88;4773013;30;20140;-68
2023/12/19 06:27:19;;;;;;;22.45;15.07;;;;;;;6.69;100.00;101981.22;4783848;30;20064;-71
2023/12/19 06:30:08;;;;;;;17.45;12.10;;;;;;;6.72;100.00;101980.78;4756342;30;20091;-70
2023/12/19 06:33:10;;;;;;;19.42;13.68;;;;;;;6.69;100.00;101983.94;4794738;30;20082;-68
2023/12/19 06:35:58;;;;;;;20.90;14.55;;;;;;;6.68;100.00;101974.13;4780114;30;20170;-68
2023/12/19 06:38:46;;;;;;;20.52;13.38;;;;;;;6.66;100.00;101987.03;4762452;30;20063;-68
2023/12/19 06:41:34;;;;;;;14.80;9.23;;;;;;;6.75;100.00;101988.47;4770577;30;20139;-68
2023/12/19 06:44:23;;;;;;;23.80;15.10;;;;;;;6.69;100.00;101985.81;4769531;30;20070;-69
2023/12/19 06:47:11;;;;;;;21.70;12.80;;;;;;;6.76;100.00;101982.03;4757358;30;20047;-69
2023/12/19 06:49:59;;;;;;;17.58;12.88;;;;;;;6.73;100.00;101970.78;4769514;30;20072;-70
2023/12/19 06:52:47;;;;;;;17.85;12.57;;;;;;;6.75;100.00;101968.69;4769012;30;20052;-70
2023/12/19 06:55:35;;;;;;;19.67;12.77;;;;;;;6.78;100.00;101969.09;4768340;30;20185;-71
2023/12/19 06:58:23;;;;;;;20.42;13.13;;;;;;;6.78;100.00;101973.66;4751605;30;20073;-70
2023/12/19 07:01:11;;;;;;;21.30;13.13;;;;;;;6.75;100.00;101969.50;4770374;29;20048;-71
2023/12/19 07:03:59;;;;;;;19.90;12.13;;;;;;;6.80;100.00;101964.28;4744668;30;20060;-70
2023/12/19 07:06:47;;;;;;;19.08;13.93;;;;;;;6.90;100.00;101963.00;4769806;30;20063;-70
2023/12/19 07:09:37;;;;;;;16.92;11.77;;;;;;;6.86;100.00;101954.47;4768596;30;20063;-69
2023/12/19 07:12:25;;;;;;;17.58;13.20;;;;;;;6.83;100.00;101957.59;4768730;30;20078;-69
2023/12/19 07:15:14;;;;;;;21.85;13.27;;;;;;;6.85;100.00;101955.50;4766738;30;20059;-68
2023/12/19 07:18:03;;;;;;;20.98;14.55;;;;;;;6.79;100.00;101951.78;4769146;30;20062;-68
2023/12/19 07:20:51;;;;;;;19.55;14.32;;;;;;;6.72;100.00;101959.13;4766574;30;20134;-70
2023/12/19 07:23:39;;;;;;;23.73;14.30;;;;;;;6.70;100.00;101954.97;4767132;30;20054;-70
2023/12/19 07:26:28;;;;;;;21.77;13.43;;;;;;;6.67;100.00;101948.09;4767020;30;20159;-69
2023/12/19 07:29:16;;;;;;;19.80;13.23;;;;;;;6.71;100.00;101953.91;4767530;30;20086;-70
2023/12/19 07:32:05;;;;;;;19.77;12.23;;;;;;;6.79;100.00;101946.38;4751542;30;20083;-68
2023/12/19 07:34:53;;;;;;;11.68;7.88;;;;;;;6.89;100.00;101940.50;4746501;30;20047;-69
2023/12/19 07:37:42;;;;;;;19.77;12.63;;;;;;;6.89;100.00;101945.09;4767116;30;20055;-68
2023/12/19 07:40:31;;;;;;;15.23;10.55;;;;;;;6.85;100.00;101957.38;4767547;30;20077;-69
2023/12/19 07:43:19;;;;;;;15.98;10.68;;;;;;;6.96;100.00;101951.31;4771269;30;20047;-69
2023/12/19 07:46:07;;;;;;;17.98;10.57;;;;;;;6.94;100.00;101964.22;4769578;30;20048;-69
2023/12/19 07:48:55;;;;;;;17.95;10.95;;;;;;;6.96;100.00;101959.44;4771804;30;20536;-70
2023/12/19 07:51:43;;;;;;;22.05;14.05;;;;;;;6.87;100.00;101966.13;4756944;30;20051;-69
2023/12/19 07:54:31;;;;;;;19.65;12.50;;;;;;;6.81;100.00;101935.34;4771180;30;20056;-68
2023/12/19 07:57:19;;;;;;;18.65;13.30;;;;;;;6.77;100.00;101940.34;4761862;30;20055;-69
2023/12/19 08:00:09;;;;;;;19.70;12.95;;;;;;;6.76;100.00;101937.88;4771128;30;20056;-69
2023/12/19 08:03:02;;;;;;;18.13;12.43;;;;;;;6.76;100.00;101941.41;4769594;30;20047;-70
2023/12/19 08:05:50;;;;;;;18.77;12.90;;;;;;;6.77;100.00;101940.34;4754761;30;20087;-68
2023/12/19 08:08:40;;;;;;;19.27;12.77;;;;;;;6.76;100.00;101927.84;4423406;30;10000507;-69
2023/12/19 08:11:28;;;;;;;22.75;12.75;;;;;;;6.78;100.00;101917.63;4751216;30;20055;-70
2023/12/19 08:14:16;;;;;;;17.70;11.57;;;;;;;6.80;100.00;101915.53;4778722;30;20062;-69
2023/12/19 08:17:04;;;;;;;16.92;8.70;;;;;;;6.92;100.00;101909.44;4768278;30;20051;-67
2023/12/19 08:19:52;;;;;;;17.05;9.23;;;;;;;7.06;100.00;101910.19;4778597;30;20181;-69
2023/12/19 08:22:44;;;;;;;17.55;10.65;;;;;;;7.13;100.00;101909.09;4770740;30;20079;-68
2023/12/19 08:25:33;;;;;;;18.40;10.52;;;;;;;7.10;100.00;101927.69;4772092;30;20499;-68
2023/12/19 08:28:21;;;;;;;14.85;9.43;;;;;;;7.01;100.00;101932.53;4776774;30;20055;-68
2023/12/19 08:31:09;;;;;;;16.67;10.55;;;;;;;7.07;100.00;101912.69;4776115;30;20047;-70
2023/12/19 08:33:57;;;;;;;16.48;10.18;;;;;;;7.04;100.00;101915.81;4775681;30;20061;-69
2023/12/19 08:36:46;;;;;;;19.85;8.38;;;;;;;7.17;100.00;101913.03;4788222;29;20055;-69
2023/12/19 08:39:33;;;;;;;17.42;9.75;;;;;;;7.12;100.00;101920.13;4776469;30;20527;-70
2023/12/19 08:42:22;;;;;;;19.25;9.38;;;;;;;7.06;100.00;101912.91;4776397;30;20055;-70
2023/12/19 08:45:17;;;;;;;16.83;10.35;;;;;;;7.12;100.00;101907.44;4797653;29;20056;-70
2023/12/19 08:48:06;;;;;;;18.20;7.32;;;;;;;7.29;100.00;101901.47;4758385;30;20052;-70
2023/12/19 08:50:54;;;;;;;18.25;8.43;;;;;;;7.19;100.00;101899.25;4758215;30;20055;-70
2023/12/19 08:53:42;;;;;;;12.60;7.32;;;;;;;7.18;100.00;101903.84;4770384;30;20545;-69
2023/12/19 08:56:30;;;;;;;14.45;8.57;;;;;;;7.13;100.00;101898.25;4778387;29;20556;-69
2023/12/19 08:59:18;;;;;;;14.93;9.63;;;;;;;7.03;100.00;101889.78;4775695;30;20505;-70
2023/12/19 09:02:06;;;;;;;15.43;8.02;;;;;;;7.01;100.00;101898.13;4751057;30;20059;-69
2023/12/19 09:04:54;;;;;;;14.30;7.88;;;;;;;7.14;100.00;101886.34;4763605;30;20097;-69
2023/12/19 09:07:44;;;;;;;15.23;7.30;;;;;;;7.07;100.00;101885.59;4781844;30;20138;-69
2023/12/19 09:10:32;;;;;;;12.75;7.82;;;;;;;7.02;100.00;101877.25;4758074;30;20452;-68
2023/12/19 09:13:21;;;;;;;14.45;8.43;;;;;;;7.00;100.00;101884.81;4770059;30;20564;-69
2023/12/19 09:16:10;;;;;;;14.25;7.40;;;;;;;6.97;100.00;101874.38;4757161;30;20087;-69
2023/12/19 09:19:00;;;;;;;13.45;8.82;;;;;;;7.02;100.00;101885.38;4757743;30;20051;-69
2023/12/19 09:21:48;;;;;;;19.00;8.45;;;;;;;7.10;100.00;101881.63;4770314;30;20079;-69
2023/12/19 09:24:36;;;;;;;18.85;7.22;;;;;;;7.28;100.00;101870.00;4770510;30;20140;-69
2023/12/19 09:27:24;;;;;;;12.52;7.22;;;;;;;7.18;100.00;101874.03;4451450;29;9999713;-69
2023/12/19 09:30:15;;;;;;;13.00;7.70;;;;;;;7.21;100.00;101860.03;4784616;30;20058;-69
2023/12/19 09:33:04;;;;;;;13.70;8.77;;;;;;;7.11;100.00;101877.84;4772488;30;20066;-69
2023/12/19 09:35:52;;;;;;;13.40;7.70;;;;;;;7.37;100.00;101871.41;4785772;29;20115;-69
2023/12/19 09:38:40;;;;;;;14.25;6.82;;;;;;;7.24;100.00;101869.63;4772212;30;20082;-70
2023/12/19 09:41:28;;;;;;;12.10;7.68;;;;;;;7.20;100.00;101863.81;4784661;29;20138;-69
2023/12/19 09:44:17;;;;;;;11.30;6.65;;;;;;;7.10;100.00;101854.50;4784576;29;20086;-69
2023/12/19 09:47:19;;;;;;;11.98;7.78;;;;;;;7.06;100.00;101874.97;4771671;30;20059;-70
2023/12/19 09:50:13;;;;;;;12.25;6.80;;;;;;;7.19;100.00;101848.59;4770052;30;20432;-70
2023/12/19 09:53:01;;;;;;;11.95;7.00;;;;;;;7.16;100.00;101845.50;4770958;30;20185;-70
2023/12/19 09:55:49;;;;;;;16.60;7.68;;;;;;;7.16;100.00;101846.31;4771129;30;20059;-69
2023/12/19 09:58:38;;;;;;;14.77;6.93;;;;;;;7.22;100.00;101840.03;4782696;30;20130;-69
2023/12/19 10:01:28;;;;;;;12.00;6.68;;;;;;;7.17;100.00;101841.75;4771649;30;20646;-69
2023/12/19 10:04:17;;;;;;;11.65;6.97;;;;;;;7.14;100.00;101825.91;4771896;29;20051;-69
2023/12/19 10:07:05;;;;;;;14.15;6.45;;;;;;;7.15;100.00;101824.88;4771282;30;20506;-69
2023/12/19 10:09:56;;;;;;;10.88;6.20;;;;;;;7.16;100.00;101821.91;4773029;29;20054;-69
2023/12/19 10:12:49;;;;;;;11.20;6.78;;;;;;;7.11;100.00;101820.94;4783761;30;20067;-69
2023/12/19 10:15:45;;;;;;;10.60;6.68;;;;;;;7.07;100.00;101820.56;4783912;30;20066;-70
2023/12/19 10:18:56;;;;;;;13.90;7.10;;;;;;;7.22;100.00;101812.91;4784127;29;20156;-68
2023/12/19 10:21:47;;;;;;;11.38;6.47;;;;;;;7.24;100.00;101808.13;4785703;29;20138;-68
2023/12/19 10:24:37;;;;;;;10.23;5.97;;;;;;;7.17;100.00;101799.19;4773455;30;20193;-69
2023/12/19 10:27:25;;;;;;;12.52;6.05;;;;;;;7.36;100.00;101796.53;4754434;30;20067;-67
2023/12/19 10:30:17;;;;;;;9.32;5.68;;;;;;;7.32;100.00;101798.03;4772404;30;20067;-68
2023/12/19 10:33:06;;;;;;;11.48;5.70;;;;;;;7.33;100.00;101788.84;4775938;30;20486;-70
2023/12/19 10:35:54;;;;;;;8.35;5.07;;;;;;;7.21;100.00;101792.28;4789727;30;20050;-68
2023/12/19 10:38:46;;;;;;;9.38;5.15;;;;;;;7.19;100.00;101786.25;4795085;30;20055;-69
2023/12/19 10:41:38;;;;;;;8.45;5.20;;;;;;;7.23;100.00;101764.94;4802018;30;20055;-70
2023/12/19 10:44:27;;;;;;;10.05;6.03;;;;;;;7.32;100.00;101769.03;4787445;29;20068;-69
2023/12/19 10:47:16;;;;;;;12.30;5.55;;;;;;;7.33;100.00;101754.41;4788602;30;20059;-69
2023/12/19 10:50:05;;;;;;;10.43;5.28;;;;;;;7.33;100.00;101753.59;4802365;29;20059;-69
2023/12/19 10:52:56;;;;;;;10.80;5.18;;;;;;;7.31;100.00;101761.97;4787376;29;20070;-69
2023/12/19 10:55:46;;;;;;;13.98;5.80;;;;;;;7.28;100.00;101751.56;4759531;30;20055;-69
2023/12/19 10:58:36;;;;;;;9.80;5.35;;;;;;;7.25;100.00;101733.84;4754478;30;20056;-70
2023/12/19 11:01:26;;;;;;;8.07;5.07;;;;;;;7.32;100.00;101730.28;4746458;30;20136;-68
2023/12/19 11:04:23;;;;;;;8.43;4.78;;;;;;;7.24;100.00;101713.25;4775732;30;20051;-69
2023/12/19 11:07:12;;;;;;;7.97;5.40;;;;;;;7.30;100.00;101722.34;4787141;30;20109;-69
2023/12/19 11:10:06;;;;;;;12.00;5.15;;;;;;;7.27;100.00;101714.66;4773540;30;20055;-69
2023/12/19 11:12:54;;;;;;;10.23;5.85;;;;;;;7.36;100.00;101709.78;4773840;30;20059;-69
2023/12/19 11:15:51;;;;;;;10.02;4.22;;;;;;;7.39;100.00;101709.34;4787568;29;20098;-68
2023/12/19 11:18:55;;;;;;;11.27;5.45;;;;;;;7.34;100.00;101707.31;4787996;29;20055;-68
2023/12/19 11:22:05;;;;;;;10.05;5.70;;;;;;;7.43;100.00;101694.25;4774497;30;20489;-65
2023/12/19 11:25:29;;;;;;;10.15;6.00;;;;;;;7.28;100.00;101680.25;4786034;29;20059;-68
2023/12/19 11:28:18;;;;;;;9.02;5.20;;;;;;;7.23;100.00;101684.47;4757267;30;20071;-69
2023/12/19 11:31:29;;;;;;;9.43;6.00;;;;;;;7.20;100.00;101684.91;4770254;30;20144;-68
2023/12/19 11:34:23;;;;;;;9.68;4.63;;;;;;;7.35;100.00;101672.88;4775951;29;20055;-69
2023/12/19 11:37:11;;;;;;;9.38;5.45;;;;;;;7.33;100.00;101672.28;4775369;30;20048;-68
2023/12/19 11:40:00;;;;;;;9.68;5.50;;;;;;;7.34;100.00;101676.66;4759863;30;20058;-69
2023/12/19 11:42:48;;;;;;;9.90;5.63;;;;;;;7.47;100.00;101669.19;4786425;29;20051;-69
2023/12/19 11:45:37;;;;;;;7.82;5.00;;;;;;;7.40;100.00;101673.03;4787672;29;20071;-69
2023/12/19 11:48:36;;;;;;;8.85;5.25;;;;;;;7.45;100.00;101662.34;4774298;30;20570;-68
2023/12/19 11:51:46;;;;;;;8.55;5.13;;;;;;;7.44;100.00;101663.41;4775199;30;20130;-69
2023/12/19 11:54:34;;;;;;;7.30;4.22;;;;;;;7.54;100.00;101647.41;4786254;29;20048;-69
2023/12/19 11:57:23;;;;;;;7.28;4.32;;;;;;;7.46;100.00;101650.44;4786124;30;20055;-69
2023/12/19 12:00:13;;;;;;;7.78;5.05;;;;;;;7.41;100.00;101643.00;4768738;30;20048;-69
2023/12/19 12:03:08;;;;;;;9.05;5.07;;;;;;;7.40;100.00;101630.47;4769948;30;20048;-69
2023/12/19 12:05:56;;;;;;;6.25;4.00;;;;;;;7.34;100.00;101617.84;4785701;30;20501;-69
2023/12/19 12:08:54;;;;;;;6.95;4.13;;;;;;;7.49;100.00;101613.91;4784972;30;20055;-69
2023/12/19 12:11:51;;;;;;;7.93;3.78;;;;;;;7.51;100.00;101609.91;4785480;29;20059;-69
2023/12/19 12:14:39;;;;;;;6.82;4.03;;;;;;;7.44;100.00;101610.00;4784181;30;20059;-70
2023/12/19 12:17:29;;;;;;;6.97;4.20;;;;;;;7.38;100.00;101601.94;4760498;30;20055;-69
2023/12/19 12:20:25;;;;;;;5.82;3.65;;;;;;;7.42;100.00;101601.25;4769350;30;20058;-69
2023/12/19 12:23:18;;;;;;;7.43;3.63;;;;;;;7.47;100.00;101592.44;4768674;30;20509;-70
2023/12/19 12:26:08;;;;;;;6.15;3.50;;;;;;;7.46;100.00;101598.94;4734950;30;20149;-69
2023/12/19 12:28:56;;;;;;;7.65;3.95;;;;;;;7.44;100.00;101584.78;4754288;30;20147;-69
2023/12/19 12:31:46;;;;;;;6.32;3.88;;;;;;;7.43;100.00;101577.66;4780990;30;20531;-69
2023/12/19 12:34:34;;;;;;;6.75;3.58;;;;;;;7.43;100.00;101569.53;4759758;30;20078;-69
2023/12/19 12:37:23;;;;;;;6.93;3.97;;;;;;;7.41;100.00;101566.25;4785937;30;20417;-69
2023/12/19 12:40:15;;;;;;;8.25;3.80;;;;;;;7.42;100.00;101566.00;4781616;30;20080;-69
2023/12/19 12:43:51;;;;;;;6.95;3.40;;;;;;;7.51;100.00;101563.00;4785168;29;20126;-69
2023/12/19 12:46:47;;;;;;;6.93;4.05;;;;;;;7.58;100.00;101551.00;4762987;30;20066;-69
2023/12/19 12:49:37;;;;;;;5.90;3.97;;;;;;;7.67;100.00;101538.78;4773000;30;20063;-69
2023/12/19 12:52:26;;;;;;;5.20;3.70;;;;;;;7.59;100.00;101538.25;4778313;29;20063;-69
2023/12/19 12:55:17;;;;;;;6.97;4.00;;;;;;;7.41;100.00;101545.38;4778681;30;20569;-68
2023/12/19 12:58:06;;;;;;;6.60;4.00;;;;;;;7.37;100.00;101532.50;4784876;30;20177;-68